Hillsboro, New Hampshire
Current Conditions -  °F | °C
As of 2:10 PM on Thursday 18 Dec 2014 (Local Time) from KCON Reporting Station
Overcast Overcast  
Wind Chill: 30°   Ceiling: 3000
Heat Index: 39°   Visibility: 10mi
Dew Point: 28°   Wind: 17mph
Humidity: 65%   Direction: 300°WNW
Pressure: 29.75"   Gusts: 25mph
Location:  43.12°N, 71.9°W
Report Text: KCON 181910Z AUTO 30015G22KT 10SM OVC030 04/M02 A2975 RMK AO2 T00391022
Loading
Personal Weather Stations






























Interactive Weather Map New forecast layout! Learn more

10-Day Weather Forecast

Advertisements
Track Severe Weather on mobile